AUR9ET EGTE-EGJB
Flight info
| Callsign | AUR9ET |
|---|---|
| Flight time | N/A |
| Altitude | 7000 |
| Route | DAWLY N864 ABBEW/N0284F090 N90 ENHEL N862 SKERY |
| Aircraft | A320/M-SDE3FGHIRWY/LB1 |
Departure
| Time | N/A |
|---|---|
| Airport | Exeter International Airport (EGTE) |
Arrival
| Time | 2026-04-22 21:13 |
|---|---|
| Airport | Guernsey Airport (EGJB) |
| Time | Latitude | Longitude | Altitude | Speed | Heading |
|---|---|---|---|---|---|
| 2026-04-22 20:57 | 49.46551 | -2.84534 | 4385 ft | 185 kts | 155° |
| 2026-04-22 20:57 | 49.45371 | -2.83821 | 3996 ft | 180 kts | 155° |
| 2026-04-22 20:57 | 49.44286 | -2.82959 | 3620 ft | 172 kts | 140° |
| 2026-04-22 20:58 | 49.43492 | -2.81644 | 3239 ft | 166 kts | 123° |
| 2026-04-22 20:58 | 49.43042 | -2.80019 | 2820 ft | 164 kts | 105° |
| 2026-04-22 20:58 | 49.42979 | -2.78299 | 2535 ft | 158 kts | 92° |
| 2026-04-22 20:58 | 49.43028 | -2.76673 | 2305 ft | 147 kts | 92° |
| 2026-04-22 20:59 | 49.43071 | -2.75190 | 2121 ft | 134 kts | 92° |
| 2026-04-22 20:59 | 49.43111 | -2.73779 | 1937 ft | 131 kts | 92° |
| 2026-04-22 20:59 | 49.43150 | -2.72389 | 1755 ft | 130 kts | 92° |
| 2026-04-22 20:59 | 49.43190 | -2.71010 | 1578 ft | 129 kts | 91° |
| 2026-04-22 21:00 | 49.43228 | -2.69654 | 1402 ft | 128 kts | 91° |
| 2026-04-22 21:00 | 49.43267 | -2.68282 | 1226 ft | 129 kts | 90° |
| 2026-04-22 21:00 | 49.43307 | -2.66899 | 1042 ft | 131 kts | 87° |
| 2026-04-22 21:00 | 49.43346 | -2.65494 | 859 ft | 130 kts | 87° |
| 2026-04-22 21:01 | 49.43385 | -2.64116 | 693 ft | 130 kts | 87° |
| 2026-04-22 21:01 | 49.43426 | -2.62723 | 514 ft | 128 kts | 86° |
| 2026-04-22 21:01 | 49.43465 | -2.61356 | 353 ft | 128 kts | 86° |
| 2026-04-22 21:01 | 49.43497 | -2.60111 | 371 ft | 110 kts | 87° |
| 2026-04-22 21:02 | 49.43517 | -2.58916 | 963 ft | 113 kts | 89° |
| 2026-04-22 21:02 | 49.43572 | -2.57710 | 1681 ft | 118 kts | 89° |
| 2026-04-22 21:02 | 49.43699 | -2.56349 | 2154 ft | 139 kts | 87° |
| 2026-04-22 21:02 | 49.43781 | -2.54789 | 2665 ft | 151 kts | 94° |
| 2026-04-22 21:03 | 49.43793 | -2.53101 | 2978 ft | 173 kts | 94° |
| 2026-04-22 21:03 | 49.43797 | -2.51167 | 2990 ft | 186 kts | 94° |
| 2026-04-22 21:03 | 49.43665 | -2.49213 | 2995 ft | 183 kts | 117° |
| 2026-04-22 21:03 | 49.42729 | -2.47960 | 3012 ft | 189 kts | 161° |
| 2026-04-22 21:04 | 49.41374 | -2.47956 | 3016 ft | 199 kts | 177° |
| 2026-04-22 21:04 | 49.39993 | -2.48186 | 3003 ft | 204 kts | 192° |
| 2026-04-22 21:04 | 49.38874 | -2.49618 | 3014 ft | 225 kts | 236° |
| 2026-04-22 21:04 | 49.38444 | -2.51992 | 3014 ft | 236 kts | 258° |
| 2026-04-22 21:05 | 49.38342 | -2.54523 | 3010 ft | 238 kts | 265° |
| 2026-04-22 21:05 | 49.38344 | -2.57059 | 2995 ft | 234 kts | 267° |
| 2026-04-22 21:05 | 49.38374 | -2.59474 | 3006 ft | 221 kts | 268° |
| 2026-04-22 21:05 | 49.38411 | -2.61811 | 3010 ft | 217 kts | 268° |
| 2026-04-22 21:06 | 49.38449 | -2.64127 | 3012 ft | 216 kts | 268° |
| 2026-04-22 21:06 | 49.38489 | -2.66423 | 3010 ft | 215 kts | 268° |
| 2026-04-22 21:06 | 49.38530 | -2.68718 | 3003 ft | 215 kts | 267° |
| 2026-04-22 21:06 | 49.38583 | -2.71006 | 3055 ft | 215 kts | 268° |
| 2026-04-22 21:07 | 49.38638 | -2.73290 | 3010 ft | 214 kts | 268° |
| 2026-04-22 21:07 | 49.38692 | -2.75578 | 3006 ft | 215 kts | 268° |
| 2026-04-22 21:07 | 49.38747 | -2.77871 | 3007 ft | 215 kts | 267° |
| 2026-04-22 21:07 | 49.38808 | -2.80112 | 2993 ft | 204 kts | 269° |
| 2026-04-22 21:08 | 49.39254 | -2.82140 | 2920 ft | 202 kts | 310° |
| 2026-04-22 21:08 | 49.40372 | -2.83294 | 2806 ft | 190 kts | 354° |
| 2026-04-22 21:08 | 49.41602 | -2.83207 | 2689 ft | 169 kts | 32° |
| 2026-04-22 21:08 | 49.42497 | -2.82202 | 2573 ft | 160 kts | 63° |
| 2026-04-22 21:09 | 49.42897 | -2.80729 | 2430 ft | 140 kts | 90° |
| 2026-04-22 21:09 | 49.42948 | -2.79289 | 2302 ft | 133 kts | 93° |
| 2026-04-22 21:09 | 49.42989 | -2.77882 | 2177 ft | 130 kts | 93° |
| 2026-04-22 21:09 | 49.43030 | -2.76499 | 2120 ft | 129 kts | 93° |
| 2026-04-22 21:10 | 49.43070 | -2.75121 | 2046 ft | 130 kts | 93° |
| 2026-04-22 21:10 | 49.43109 | -2.73758 | 1900 ft | 129 kts | 92° |
| 2026-04-22 21:10 | 49.43149 | -2.72383 | 1738 ft | 129 kts | 92° |
| 2026-04-22 21:10 | 49.43189 | -2.71013 | 1571 ft | 128 kts | 91° |
| 2026-04-22 21:11 | 49.43228 | -2.69644 | 1397 ft | 129 kts | 91° |
| 2026-04-22 21:11 | 49.43268 | -2.68273 | 1226 ft | 128 kts | 91° |
| 2026-04-22 21:11 | 49.43307 | -2.66895 | 1041 ft | 131 kts | 88° |
| 2026-04-22 21:11 | 49.43346 | -2.65505 | 860 ft | 129 kts | 88° |
| 2026-04-22 21:12 | 49.43385 | -2.64140 | 695 ft | 127 kts | 87° |
| 2026-04-22 21:12 | 49.43423 | -2.62756 | 524 ft | 129 kts | 87° |
| 2026-04-22 21:12 | 49.43463 | -2.61380 | 348 ft | 129 kts | 86° |
| 2026-04-22 21:12 | 49.43496 | -2.60232 | 312 ft | 75 kts | 88° |
| 2026-04-22 21:13 | 49.43511 | -2.59737 | 327 ft | 36 kts | 87° |
| 2026-04-22 21:13 | 49.43520 | -2.59422 | 334 ft | 20 kts | 88° |
| 2026-04-22 21:13 | 49.43504 | -2.59218 | 331 ft | 19 kts | 135° |
| 2026-04-22 21:13 | 49.43416 | -2.59198 | 332 ft | 9 kts | 182° |
| 2026-04-22 21:14 | 49.43374 | -2.59260 | 333 ft | 10 kts | 258° |
| 2026-04-22 21:14 | 49.43371 | -2.59318 | 334 ft | 4 kts | 267° |
| 2026-04-22 21:14 | 49.43369 | -2.59394 | 334 ft | 13 kts | 268° |
| 2026-04-22 21:14 | 49.43364 | -2.59576 | 329 ft | 19 kts | 268° |
| 2026-04-22 21:15 | 49.43334 | -2.59683 | 327 ft | 9 kts | 191° |
| 2026-04-22 21:15 | 49.43265 | -2.59685 | 328 ft | 4 kts | 178° |
| 2026-04-22 21:15 | 49.43256 | -2.59684 | 328 ft | 1 kts | 177° |